createdAt,value
2018-08-03T00:01:20.164Z,99.90
2018-08-03T00:03:47.163Z,99.90
2018-08-03T00:06:14.183Z,99.90
2018-08-03T00:08:41.270Z,99.90
2018-08-03T00:13:48.816Z,99.70
2018-08-03T00:16:15.836Z,99.90
2018-08-03T00:18:42.867Z,99.90
2018-08-03T00:21:09.925Z,99.90
2018-08-03T00:23:36.950Z,99.90
2018-08-03T00:26:03.977Z,99.90
2018-08-03T00:28:31.569Z,99.90
2018-08-03T00:30:58.599Z,99.90
2018-08-03T00:33:25.613Z,99.90
2018-08-03T00:35:52.688Z,99.90
2018-08-03T00:40:46.801Z,99.40
2018-08-03T00:43:13.890Z,99.80
2018-08-03T00:45:41.749Z,99.80
2018-08-03T00:48:09.332Z,99.90
2018-08-03T00:50:36.184Z,99.30
2018-08-03T00:55:30.648Z,99.50
2018-08-03T00:57:58.572Z,99.90
2018-08-03T01:00:25.567Z,99.90
2018-08-03T01:02:52.575Z,99.90
2018-08-03T01:05:19.618Z,99.90
2018-08-03T01:07:47.368Z,99.90
2018-08-03T01:10:14.421Z,99.90
2018-08-03T01:12:41.484Z,99.90
2018-08-03T01:15:08.490Z,99.60
2018-08-03T01:17:35.526Z,99.90
2018-08-03T01:20:02.592Z,99.70
2018-08-03T01:22:30.463Z,99.90
2018-08-03T01:24:57.478Z,99.90
2018-08-03T01:27:24.551Z,99.90
2018-08-03T01:29:51.562Z,99.90
2018-08-03T01:32:18.578Z,99.90
2018-08-03T01:34:46.446Z,99.90
2018-08-03T01:39:52.286Z,99.90
2018-08-03T01:42:19.306Z,99.90
2018-08-03T01:44:47.185Z,99.90
2018-08-03T01:47:14.258Z,99.90
2018-08-03T01:49:41.291Z,99.90
2018-08-03T01:52:08.324Z,99.90
2018-08-03T01:54:35.360Z,99.90
2018-08-03T01:57:02.358Z,99.90
2018-08-03T01:59:29.393Z,99.90
2018-08-03T02:01:56.434Z,99.90
2018-08-03T02:04:23.458Z,99.90
2018-08-03T02:06:51.187Z,99.90
2018-08-03T02:09:18.266Z,99.90
2018-08-03T02:11:45.277Z,99.90
2018-08-03T02:14:12.297Z,99.90
2018-08-03T02:16:39.350Z,99.90
2018-08-03T02:19:07.314Z,99.90
2018-08-03T02:21:34.347Z,99.90
2018-08-03T02:24:01.432Z,99.90
2018-08-03T02:26:28.430Z,99.90
2018-08-03T02:28:55.448Z,99.90
2018-08-03T02:31:22.528Z,99.90
2018-08-03T02:33:50.524Z,99.90
2018-08-03T02:36:17.556Z,99.90
2018-08-03T02:38:44.596Z,99.90
2018-08-03T02:41:12.492Z,99.90
2018-08-03T02:43:40.333Z,99.90
2018-08-03T02:46:07.417Z,99.90
2018-08-03T02:48:34.452Z,99.90
2018-08-03T02:51:02.435Z,99.90
2018-08-03T02:58:35.334Z,99.90
2018-08-03T03:01:02.368Z,99.90
2018-08-03T03:03:29.453Z,99.90
2018-08-03T03:05:57.373Z,99.90
2018-08-03T03:08:24.407Z,99.90
2018-08-03T03:10:51.398Z,99.90
2018-08-03T03:13:18.490Z,99.90
2018-08-03T03:15:46.353Z,99.90
2018-08-03T03:18:13.365Z,99.90
2018-08-03T03:20:41.710Z,99.90
2018-08-03T03:23:08.745Z,99.90
2018-08-03T03:25:36.704Z,99.90
2018-08-03T03:28:04.605Z,99.90
2018-08-03T03:30:31.779Z,99.90
2018-08-03T03:32:58.810Z,99.90
2018-08-03T03:35:25.884Z,99.90
2018-08-03T03:37:52.928Z,99.90
2018-08-03T03:40:20.795Z,99.90
2018-08-03T03:42:47.875Z,99.90
2018-08-03T03:45:14.887Z,99.90
2018-08-03T03:47:42.054Z,99.90
2018-08-03T03:50:09.106Z,99.90
2018-08-03T03:52:36.124Z,99.90
2018-08-03T03:55:03.214Z,99.90
2018-08-03T03:57:30.444Z,99.90
2018-08-03T03:59:57.459Z,99.90
2018-08-03T04:02:24.476Z,99.90
2018-08-03T04:09:46.796Z,99.90
2018-08-03T04:12:13.868Z,99.90
2018-08-03T04:17:21.465Z,99.90
2018-08-03T04:19:48.518Z,99.90
2018-08-03T04:22:15.528Z,99.90
2018-08-03T04:24:42.620Z,99.90
2018-08-03T04:29:36.755Z,99.90
2018-08-03T04:32:03.807Z,99.90
2018-08-03T04:34:30.822Z,99.90
2018-08-03T04:36:57.846Z,99.90
2018-08-03T04:39:25.933Z,99.90
2018-08-03T04:41:52.938Z,99.90
2018-08-03T04:44:19.936Z,99.90
2018-08-03T04:46:47.019Z,99.90
2018-08-03T04:49:14.037Z,99.90
2018-08-03T04:51:41.803Z,99.90
2018-08-03T04:54:08.854Z,99.90
2018-08-03T04:56:35.855Z,99.90
2018-08-03T04:59:02.859Z,99.90
2018-08-03T05:01:29.929Z,99.90
2018-08-03T05:03:57.864Z,99.90
2018-08-03T05:06:24.857Z,99.90
2018-08-03T05:08:52.557Z,99.90
2018-08-03T05:11:19.566Z,99.90
2018-08-03T05:13:46.582Z,99.90
2018-08-03T05:16:13.651Z,99.90
2018-08-03T05:18:40.666Z,99.90
2018-08-03T05:21:07.666Z,99.90
2018-08-03T05:23:34.719Z,99.90
2018-08-03T05:26:01.731Z,99.90
2018-08-03T05:28:28.729Z,99.90
2018-08-03T05:33:34.292Z,99.90
2018-08-03T05:36:02.242Z,99.90
2018-08-03T05:38:29.245Z,99.90
2018-08-03T05:40:56.575Z,99.90
2018-08-03T05:43:23.654Z,99.90
2018-08-03T05:45:51.250Z,99.90
2018-08-03T05:48:18.286Z,99.90
2018-08-03T05:50:45.374Z,99.90
2018-08-03T05:53:12.383Z,99.90
2018-08-03T05:55:39.405Z,99.90
2018-08-03T06:00:34.212Z,99.90
2018-08-03T06:03:01.223Z,99.90
2018-08-03T06:05:28.349Z,99.90
2018-08-03T06:07:55.368Z,99.90
2018-08-03T06:10:22.384Z,99.90
2018-08-03T06:12:50.274Z,99.90
2018-08-03T06:15:17.275Z,99.90
2018-08-03T06:17:44.303Z,99.90
2018-08-03T06:20:12.197Z,99.90
2018-08-03T06:22:39.298Z,99.90
2018-08-03T06:25:06.780Z,99.90
2018-08-03T06:27:34.745Z,99.90
2018-08-03T06:30:02.796Z,99.90
2018-08-03T06:32:29.918Z,99.90
2018-08-03T06:34:57.962Z,99.90
2018-08-03T06:37:25.060Z,99.40
2018-08-03T06:39:52.061Z,99.90
2018-08-03T06:44:46.302Z,99.90
2018-08-03T06:49:53.800Z,98.90
2018-08-03T06:52:20.808Z,99.00
2018-08-03T06:54:47.820Z,97.60
2018-08-03T06:57:14.922Z,96.30
2018-08-03T06:59:42.830Z,97.10
2018-08-03T07:02:09.849Z,99.00
2018-08-03T07:04:36.901Z,96.00
2018-08-03T07:07:04.744Z,98.80
2018-08-03T07:09:32.488Z,97.90
2018-08-03T07:12:00.368Z,94.40
2018-08-03T07:16:55.427Z,92.90
2018-08-03T07:19:22.482Z,93.40
2018-08-03T07:21:50.383Z,91.40
2018-08-03T07:24:17.391Z,92.30
2018-08-03T07:26:44.438Z,94.10
2018-08-03T07:29:12.188Z,90.20
2018-08-03T07:31:40.054Z,91.00
2018-08-03T07:34:07.246Z,91.10
2018-08-03T07:36:34.244Z,85.80
2018-08-03T07:39:01.985Z,88.20
2018-08-03T07:41:29.867Z,90.60
2018-08-03T07:43:57.814Z,88.80
2018-08-03T07:46:24.820Z,90.20
2018-08-03T07:48:52.043Z,89.90
2018-08-03T07:51:19.058Z,85.60
2018-08-03T07:53:46.887Z,84.60
2018-08-03T07:56:14.815Z,85.10
2018-08-03T07:58:41.836Z,79.30
2018-08-03T08:01:08.847Z,76.90
2018-08-03T08:03:35.901Z,80.70
2018-08-03T08:06:03.779Z,82.20
2018-08-03T08:13:36.843Z,76.60
2018-08-03T08:16:03.893Z,68.80
2018-08-03T08:18:31.722Z,75.70
2018-08-03T08:20:58.744Z,72.50
2018-08-03T08:23:26.557Z,74.20
2018-08-03T08:25:53.552Z,73.90
2018-08-03T08:30:48.651Z,67.50
2018-08-03T08:33:15.668Z,61.60
2018-08-03T08:35:42.677Z,66.40
2018-08-03T08:38:09.719Z,67.40
2018-08-03T08:40:37.676Z,65.90
2018-08-03T08:43:04.685Z,63.60
2018-08-03T08:45:31.734Z,56.90
2018-08-03T08:47:58.766Z,54.00
2018-08-03T08:50:25.768Z,56.10
2018-08-03T08:52:52.846Z,56.00
2018-08-03T08:55:19.853Z,55.10
2018-08-03T08:57:46.854Z,57.30
2018-08-03T09:00:14.797Z,54.50
2018-08-03T09:02:42.678Z,52.30
2018-08-03T09:05:09.690Z,55.90
2018-08-03T09:07:36.989Z,48.60
2018-08-03T09:10:04.625Z,48.30
2018-08-03T09:12:31.614Z,38.90
2018-08-03T09:14:58.682Z,35.70
2018-08-03T09:17:25.695Z,40.00
2018-08-03T09:19:52.824Z,37.20
2018-08-03T09:22:19.871Z,38.70
2018-08-03T09:24:47.711Z,33.00
2018-08-03T09:29:54.160Z,32.80
2018-08-03T09:34:48.250Z,36.90
2018-08-03T09:37:15.290Z,32.80
2018-08-03T09:42:23.450Z,31.50
2018-08-03T09:44:50.954Z,32.90
2018-08-03T09:47:17.887Z,28.80
2018-08-03T09:49:44.947Z,30.10
2018-08-03T09:52:12.793Z,24.60
2018-08-03T09:54:39.786Z,24.40
2018-08-03T09:57:07.825Z,23.30
2018-08-03T10:02:01.899Z,20.80
2018-08-03T10:04:29.811Z,21.00
2018-08-03T10:06:57.707Z,19.90
2018-08-03T10:09:24.703Z,18.70
2018-08-03T10:11:51.741Z,19.00
2018-08-03T10:14:18.751Z,16.60
2018-08-03T10:16:45.826Z,16.20
2018-08-03T10:19:12.906Z,15.70
2018-08-03T10:21:39.910Z,16.00
2018-08-03T10:24:06.921Z,15.40
2018-08-03T10:26:34.008Z,18.20
2018-08-03T10:29:00.966Z,18.50
2018-08-03T10:31:28.791Z,16.10
2018-08-03T10:33:55.847Z,16.00
2018-08-03T10:36:22.840Z,15.90
2018-08-03T10:38:50.440Z,17.10
2018-08-03T10:41:17.503Z,16.40
2018-08-03T10:43:45.358Z,13.80
2018-08-03T10:46:12.360Z,15.50
2018-08-03T10:48:39.505Z,15.80
2018-08-03T10:51:06.440Z,14.90
2018-08-03T10:53:33.424Z,14.10
2018-08-03T10:56:00.467Z,14.20
2018-08-03T10:58:27.467Z,14.50
2018-08-03T11:03:21.608Z,12.90
2018-08-03T11:05:49.449Z,12.40
2018-08-03T11:10:54.968Z,13.40
2018-08-03T11:13:21.967Z,13.80
2018-08-03T11:15:49.703Z,11.60
2018-08-03T11:18:16.781Z,12.20
2018-08-03T11:20:44.605Z,13.30
2018-08-03T11:23:11.601Z,13.20
2018-08-03T11:25:38.648Z,13.40
2018-08-03T11:28:05.653Z,12.10
2018-08-03T11:30:32.657Z,10.70
2018-08-03T11:32:59.716Z,10.80
2018-08-03T11:35:26.729Z,11.80
2018-08-03T11:37:53.739Z,12.20
2018-08-03T11:40:20.815Z,11.60
2018-08-03T11:42:47.898Z,11.20
2018-08-03T11:45:14.912Z,12.00
2018-08-03T11:47:41.966Z,11.00
2018-08-03T11:50:08.970Z,10.30
2018-08-03T11:52:36.901Z,10.80
2018-08-03T11:55:03.950Z,10.90
2018-08-03T11:57:30.956Z,10.00
2018-08-03T11:59:58.948Z,10.00
2018-08-03T12:02:26.002Z,10.20
2018-08-03T12:04:52.991Z,11.30
2018-08-03T12:07:20.023Z,10.50
2018-08-03T12:09:47.255Z,9.40
2018-08-03T12:12:14.244Z,9.60
2018-08-03T12:14:41.276Z,9.30
2018-08-03T12:17:08.315Z,9.00
2018-08-03T12:22:13.861Z,6.60
2018-08-03T12:24:41.823Z,7.60
2018-08-03T12:27:08.824Z,7.60
2018-08-03T12:29:35.874Z,7.50
2018-08-03T12:32:03.755Z,6.20
2018-08-03T12:34:30.751Z,5.20
2018-08-03T12:36:57.838Z,5.30
2018-08-03T12:39:24.827Z,5.00
2018-08-03T12:41:51.837Z,6.10
2018-08-03T12:44:18.892Z,5.40
2018-08-03T12:46:45.884Z,5.00
2018-08-03T12:49:13.894Z,6.80
2018-08-03T12:51:41.056Z,3.60
2018-08-03T12:54:07.928Z,4.10
2018-08-03T12:56:34.972Z,5.10
2018-08-03T12:59:01.990Z,4.00
2018-08-03T13:03:57.029Z,2.50
2018-08-03T13:06:24.085Z,4.50
2018-08-03T13:08:51.072Z,1.90
2018-08-03T13:11:18.056Z,2.50
2018-08-03T13:13:45.119Z,3.40
2018-08-03T13:16:12.111Z,3.50
2018-08-03T13:18:39.104Z,2.60
2018-08-03T13:23:46.610Z,3.00
2018-08-03T13:26:13.644Z,1.00
2018-08-03T13:28:40.643Z,1.70
2018-08-03T13:31:07.637Z,1.70
2018-08-03T13:33:35.682Z,2.00
2018-08-03T13:36:02.671Z,3.30
2018-08-03T13:38:29.664Z,2.10
2018-08-03T13:40:56.726Z,2.00
2018-08-03T13:45:50.797Z,2.00
2018-08-03T13:48:17.844Z,1.80
2018-08-03T13:50:44.936Z,2.20
2018-08-03T13:53:12.026Z,2.20
2018-08-03T13:55:39.100Z,1.60
2018-08-03T13:58:06.816Z,2.10
2018-08-03T14:00:33.808Z,1.60
2018-08-03T14:03:00.851Z,2.30
2018-08-03T14:05:27.829Z,2.00
2018-08-03T14:07:54.827Z,2.20
2018-08-03T14:10:21.903Z,1.60
2018-08-03T14:12:48.966Z,1.60
2018-08-03T14:15:15.953Z,2.10
2018-08-03T14:17:42.993Z,2.10
2018-08-03T14:20:09.991Z,1.50
2018-08-03T14:22:36.989Z,1.00
2018-08-03T14:25:04.029Z,1.80
2018-08-03T14:27:31.028Z,1.00
2018-08-03T14:29:58.028Z,1.00
2018-08-03T14:32:25.061Z,1.00
2018-08-03T14:37:30.598Z,1.30
2018-08-03T14:39:57.593Z,1.40
2018-08-03T14:42:24.582Z,1.60
2018-08-03T14:44:51.625Z,1.00
2018-08-03T14:47:18.947Z,1.00
2018-08-03T14:52:13.921Z,1.00
2018-08-03T14:54:41.721Z,1.00
2018-08-03T14:57:08.707Z,1.00
2018-08-03T14:59:35.767Z,1.00
2018-08-03T15:02:03.484Z,1.20
2018-08-03T15:04:30.483Z,1.20
2018-08-03T15:06:57.519Z,3.80
2018-08-03T15:09:24.529Z,3.30
2018-08-03T15:11:51.510Z,2.90
2018-08-03T15:14:18.584Z,1.00
2018-08-03T15:16:45.563Z,2.30
2018-08-03T15:19:13.281Z,2.00
2018-08-03T15:21:40.322Z,1.50
2018-08-03T15:24:08.050Z,1.70
2018-08-03T15:26:35.046Z,1.70
2018-08-03T15:29:02.167Z,1.50
2018-08-03T15:31:29.138Z,1.40
2018-08-03T15:33:56.148Z,2.30
2018-08-03T15:36:23.181Z,1.30
2018-08-03T15:38:50.186Z,2.20
2018-08-03T15:41:17.182Z,2.40
2018-08-03T15:43:44.261Z,2.30
2018-08-03T15:46:11.257Z,2.40
2018-08-03T15:48:38.264Z,3.00
2018-08-03T15:51:05.306Z,2.80
2018-08-03T15:53:32.295Z,3.40
2018-08-03T16:01:05.850Z,3.10
2018-08-03T16:03:33.675Z,2.90
2018-08-03T16:06:00.748Z,2.90
2018-08-03T16:08:27.757Z,3.50
2018-08-03T16:10:54.770Z,4.20
2018-08-03T16:13:21.806Z,4.10
2018-08-03T16:15:48.807Z,4.40
2018-08-03T16:18:15.829Z,4.50
2018-08-03T16:20:42.888Z,5.10
2018-08-03T16:23:09.891Z,6.00
2018-08-03T16:25:36.936Z,6.80
2018-08-03T16:28:03.918Z,6.60
2018-08-03T16:30:32.252Z,7.40
2018-08-03T16:32:59.249Z,7.70
2018-08-03T16:35:26.288Z,8.00
2018-08-03T16:37:53.271Z,8.70
2018-08-03T16:40:20.254Z,8.20
2018-08-03T16:42:48.269Z,8.60
2018-08-03T16:45:15.252Z,8.80
2018-08-03T16:47:42.355Z,8.90
2018-08-03T16:50:09.427Z,9.00
2018-08-03T16:52:36.430Z,9.30
2018-08-03T16:55:03.436Z,9.60
2018-08-03T16:57:30.512Z,9.60
2018-08-03T16:59:57.505Z,10.00
2018-08-03T17:02:24.511Z,10.80
2018-08-03T17:04:51.553Z,10.80
2018-08-03T17:07:19.418Z,11.10
2018-08-03T17:09:46.441Z,11.00
2018-08-03T17:14:40.635Z,11.50
2018-08-03T17:19:46.180Z,12.10
2018-08-03T17:22:13.205Z,11.90
2018-08-03T17:24:40.218Z,12.20
2018-08-03T17:27:08.263Z,13.40
2018-08-03T17:29:35.285Z,13.10
2018-08-03T17:32:02.362Z,12.80
2018-08-03T17:34:29.359Z,13.30
2018-08-03T17:36:56.459Z,13.70
2018-08-03T17:39:23.409Z,13.10
2018-08-03T17:41:50.510Z,13.90
2018-08-03T17:44:17.514Z,14.30
2018-08-03T17:46:44.545Z,14.30
2018-08-03T17:49:11.591Z,14.70
2018-08-03T17:51:38.634Z,14.80
2018-08-03T17:54:05.646Z,14.60
2018-08-03T17:56:32.707Z,14.10
2018-08-03T18:01:26.833Z,14.90
2018-08-03T18:03:55.041Z,14.80
2018-08-03T18:06:22.866Z,14.40
2018-08-03T18:08:49.886Z,13.60
2018-08-03T18:11:16.938Z,14.30
2018-08-03T18:13:44.842Z,14.70
2018-08-03T18:16:11.885Z,15.20
2018-08-03T18:18:38.959Z,14.50
2018-08-03T18:21:05.968Z,14.80
2018-08-03T18:23:33.005Z,15.00
2018-08-03T18:26:00.079Z,14.40
2018-08-03T18:28:27.100Z,14.80
2018-08-03T18:30:54.120Z,15.10
2018-08-03T18:33:21.179Z,15.50
2018-08-03T18:35:48.226Z,15.10
2018-08-03T18:40:54.818Z,15.60
2018-08-03T18:43:21.818Z,15.10
2018-08-03T18:45:49.163Z,15.30
2018-08-03T18:48:16.223Z,15.50
2018-08-03T18:50:43.391Z,15.90
2018-08-03T18:53:11.278Z,15.60
2018-08-03T18:55:38.339Z,15.80
2018-08-03T18:58:05.363Z,16.00
2018-08-03T19:00:32.406Z,16.70
2018-08-03T19:02:59.926Z,16.20
2018-08-03T19:07:54.863Z,16.80
2018-08-03T19:10:21.926Z,17.00
2018-08-03T19:12:48.941Z,16.70
2018-08-03T19:15:15.964Z,16.90
2018-08-03T19:17:43.899Z,17.00
2018-08-03T19:20:11.848Z,17.00
2018-08-03T19:22:38.855Z,17.10
2018-08-03T19:25:05.898Z,16.90
2018-08-03T19:27:32.890Z,17.10
2018-08-03T19:30:00.718Z,16.90
2018-08-03T19:32:27.755Z,17.10
2018-08-03T19:34:55.716Z,16.90
2018-08-03T19:42:49.940Z,17.00
2018-08-03T19:45:15.675Z,16.80
2018-08-03T19:47:42.635Z,17.10
2018-08-03T19:50:09.626Z,17.20
2018-08-03T19:52:36.887Z,16.90
2018-08-03T19:57:43.919Z,17.20
2018-08-03T20:00:10.910Z,17.60
2018-08-03T20:02:37.899Z,17.80
2018-08-03T20:05:05.882Z,18.20
2018-08-03T20:07:32.833Z,18.10
2018-08-03T20:09:59.825Z,19.00
2018-08-03T20:12:26.883Z,19.00
2018-08-03T20:14:53.876Z,19.10
2018-08-03T20:17:20.867Z,19.30
2018-08-03T20:19:47.904Z,19.40
2018-08-03T20:22:15.676Z,19.20
2018-08-03T20:32:03.968Z,20.30
2018-08-03T20:34:31.332Z,20.30
2018-08-03T20:36:58.509Z,20.20
2018-08-03T20:39:25.637Z,20.90
2018-08-03T20:46:47.168Z,21.60
2018-08-03T20:49:14.221Z,21.40
2018-08-03T20:51:41.226Z,22.60
2018-08-03T20:54:08.237Z,21.40
2018-08-03T20:56:35.539Z,22.00
2018-08-03T20:59:02.425Z,23.00
2018-08-03T21:01:29.414Z,23.10
2018-08-03T21:03:56.447Z,23.00
2018-08-03T21:06:23.463Z,23.10
2018-08-03T21:08:50.461Z,23.30
2018-08-03T21:11:17.518Z,23.20
2018-08-03T21:16:39.926Z,23.40
2018-08-03T21:19:06.923Z,23.60
2018-08-03T21:21:33.919Z,23.30
2018-08-03T21:24:00.953Z,23.70
2018-08-03T21:26:28.396Z,23.90
2018-08-03T21:28:54.993Z,23.80
2018-08-03T21:31:22.039Z,25.10
2018-08-03T21:33:49.013Z,24.50
2018-08-03T21:36:16.009Z,25.90
2018-08-03T21:38:43.044Z,25.50
2018-08-03T21:41:10.029Z,25.80
2018-08-03T21:43:37.851Z,26.20
2018-08-03T21:46:04.936Z,26.10
2018-08-03T21:48:31.933Z,26.20
2018-08-03T21:50:58.913Z,27.10
2018-08-03T21:53:25.957Z,29.50
2018-08-03T21:55:52.950Z,29.00
2018-08-03T21:58:19.960Z,29.70
2018-08-03T22:00:47.873Z,30.30
2018-08-03T22:03:14.864Z,30.10
2018-08-03T22:05:41.849Z,30.50
2018-08-03T22:08:08.887Z,29.80
2018-08-03T22:10:35.877Z,29.70
2018-08-03T22:13:02.885Z,31.80
2018-08-03T22:15:29.939Z,32.90
2018-08-03T22:17:56.958Z,33.30
2018-08-03T22:20:23.949Z,32.00
2018-08-03T22:22:50.997Z,31.50
2018-08-03T22:25:17.993Z,31.80
2018-08-03T22:27:44.975Z,31.40
2018-08-03T22:30:12.037Z,30.40
2018-08-03T22:35:18.572Z,29.00
2018-08-03T22:37:46.509Z,29.30
2018-08-03T22:42:40.708Z,29.10
2018-08-03T22:45:07.675Z,30.10
2018-08-03T22:47:34.676Z,29.70
2018-08-03T22:50:02.571Z,29.00
2018-08-03T22:54:56.642Z,28.70
2018-08-03T22:57:23.690Z,28.80
2018-08-03T22:59:50.686Z,28.90
2018-08-03T23:02:18.629Z,29.20
2018-08-03T23:04:45.707Z,29.70
2018-08-03T23:07:12.713Z,29.90
2018-08-03T23:09:39.707Z,30.70
2018-08-03T23:12:06.745Z,31.20
2018-08-03T23:14:33.750Z,32.00
2018-08-03T23:17:00.731Z,30.20
2018-08-03T23:19:27.807Z,30.90
2018-08-03T23:21:54.793Z,31.40
2018-08-03T23:24:21.805Z,30.80
2018-08-03T23:26:49.709Z,31.70
2018-08-03T23:29:16.698Z,30.60
2018-08-03T23:31:43.699Z,29.70
2018-08-03T23:34:10.785Z,31.40
2018-08-03T23:36:37.785Z,31.90
2018-08-03T23:39:04.786Z,32.00
2018-08-03T23:41:31.834Z,33.00
2018-08-03T23:43:58.846Z,33.30
2018-08-03T23:46:25.845Z,32.70
2018-08-03T23:48:52.932Z,33.20
2018-08-03T23:54:01.344Z,34.40
2018-08-03T23:56:28.340Z,33.60
2018-08-03T23:58:55.325Z,34.00
